Time;durP1;ratioP1;P1;durP2;ratioP2;P2;SDS_P1;SDS_P2;PMS_P1;PMS_P2;Temp;Humidity;BMP_temperature;BMP_pressure;BME280_temperature;BME280_humidity;BME280_pressure;Samples;Min_cycle;Max_cycle;Signal;HPM_P1;HPM_P2
2022/03/25 00:02:10;;;;;;;0.20;0.20;;;;;;;21.36;33.44;102459.69;5139427;27;20292;-31
2022/03/25 00:04:36;;;;;;;0.10;0.10;;;;;;;21.36;33.47;102456.09;5138556;27;20039;-30
2022/03/25 00:07:01;;;;;;;0.20;0.20;;;;;;;21.35;33.34;102458.03;5142363;27;20043;-33
2022/03/25 00:09:27;;;;;;;0.10;0.10;;;;;;;21.34;33.40;102456.38;5137528;27;20462;-32
2022/03/25 00:11:53;;;;;;;0.20;0.20;;;;;;;21.36;33.50;102450.56;5137819;27;20350;-32
2022/03/25 00:14:19;;;;;;;0.20;0.20;;;;;;;21.36;33.49;102458.88;5137065;27;20035;-31
2022/03/25 00:16:45;;;;;;;0.10;0.10;;;;;;;21.34;33.38;102450.81;5109799;27;20038;-32
2022/03/25 00:19:11;;;;;;;0.10;0.10;;;;;;;21.34;33.34;102456.38;5133344;27;20041;-32
2022/03/25 00:21:37;;;;;;;0.20;0.20;;;;;;;21.34;33.51;102452.75;5123245;27;20077;-31
2022/03/25 00:24:04;;;;;;;0.10;0.10;;;;;;;21.35;33.45;102458.03;5128026;27;20067;-32
2022/03/25 00:26:30;;;;;;;0.10;0.10;;;;;;;21.35;33.53;102455.25;5129058;27;20511;-30
2022/03/25 00:28:56;;;;;;;0.10;0.10;;;;;;;21.35;33.22;102459.97;5124611;27;20039;-32
2022/03/25 00:31:22;;;;;;;0.20;0.20;;;;;;;21.34;33.59;102461.91;5127148;27;20050;-31
2022/03/25 00:33:49;;;;;;;0.10;0.10;;;;;;;21.34;33.49;102467.44;5124955;27;20036;-32
2022/03/25 00:36:17;;;;;;;0.10;0.10;;;;;;;21.34;33.37;102459.13;5128233;27;20593;-30
2022/03/25 00:38:45;;;;;;;0.15;0.15;;;;;;;21.34;33.51;102461.06;5129607;27;20400;-31
2022/03/25 00:41:12;;;;;;;0.10;0.10;;;;;;;21.35;33.53;102465.50;5125090;27;20047;-31
2022/03/25 00:43:38;;;;;;;0.10;0.10;;;;;;;21.34;33.48;102463.84;5123185;27;20350;-33
2022/03/25 00:46:04;;;;;;;0.20;0.20;;;;;;;21.33;33.41;102460.25;5127026;27;20176;-32
2022/03/25 00:48:32;;;;;;;0.10;0.10;;;;;;;21.34;33.33;102456.38;5125394;27;20061;-31
2022/03/25 00:50:58;;;;;;;0.10;0.10;;;;;;;21.34;33.41;102450.81;5125984;27;20135;-31
2022/03/25 00:53:25;;;;;;;0.10;0.10;;;;;;;21.33;33.42;102443.63;5132554;27;20043;-31
2022/03/25 00:55:52;;;;;;;0.10;0.10;;;;;;;21.32;33.49;102453.00;5123032;27;20057;-32
2022/03/25 00:58:18;;;;;;;0.10;0.10;;;;;;;21.33;33.33;102451.06;5138851;27;20039;-31
2022/03/25 01:00:44;;;;;;;0.10;0.10;;;;;;;21.33;33.34;102446.38;5125632;27;20354;-31
2022/03/25 01:03:11;;;;;;;0.20;0.20;;;;;;;21.33;33.54;102446.38;5123236;27;20045;-31
2022/03/25 01:05:37;;;;;;;0.10;0.10;;;;;;;21.34;33.47;102450.00;5117794;27;20078;-32
2022/03/25 01:08:04;;;;;;;0.20;0.20;;;;;;;21.32;33.52;102444.69;5133682;27;20043;-31
2022/03/25 01:10:31;;;;;;;0.10;0.10;;;;;;;21.32;33.36;102436.38;5124955;27;20044;-32
2022/03/25 01:12:57;;;;;;;0.10;0.10;;;;;;;21.32;33.44;102447.44;5128961;27;20145;-34
2022/03/25 01:15:23;;;;;;;0.20;0.20;;;;;;;21.32;33.41;102452.16;5127694;27;20438;-33
2022/03/25 01:17:48;;;;;;;0.10;0.10;;;;;;;21.32;33.44;102449.38;5125138;27;20047;-33
2022/03/25 01:20:14;;;;;;;0.10;0.10;;;;;;;21.32;33.55;102441.91;5127867;27;20046;-31
2022/03/25 01:22:40;;;;;;;0.10;0.10;;;;;;;21.32;33.36;102449.38;5121099;27;20058;-31
2022/03/25 01:25:08;;;;;;;0.20;0.20;;;;;;;21.32;33.52;102443.84;5129267;27;20049;-32
2022/03/25 01:27:33;;;;;;;0.10;0.10;;;;;;;21.32;33.38;102441.91;5124031;27;20039;-33
2022/03/25 01:29:59;;;;;;;0.10;0.10;;;;;;;21.31;33.33;102445.75;5125050;27;20119;-35
2022/03/25 01:32:25;;;;;;;0.20;0.20;;;;;;;21.32;33.36;102446.63;5123616;27;20055;-32
2022/03/25 01:34:51;;;;;;;0.13;0.13;;;;;;;21.32;33.46;102447.44;5124753;27;20096;-32
2022/03/25 01:37:17;;;;;;;0.20;0.20;;;;;;;21.31;33.40;102440.22;5128390;27;20043;-33
2022/03/25 01:39:43;;;;;;;0.20;0.20;;;;;;;21.30;33.60;102438.53;5128880;27;20152;-32
2022/03/25 01:42:10;;;;;;;0.35;0.35;;;;;;;21.30;33.40;102436.59;5126231;27;20043;-30
2022/03/25 01:44:36;;;;;;;0.20;0.20;;;;;;;21.30;33.40;102433.00;5124111;27;20138;-34
2022/03/25 01:47:03;;;;;;;0.10;0.10;;;;;;;21.31;33.53;102434.66;5123821;27;20343;-30
2022/03/25 01:49:29;;;;;;;0.10;0.10;;;;;;;21.30;33.19;102430.22;5120887;27;20352;-30
2022/03/25 01:51:59;;;;;;;0.10;0.10;;;;;;;21.30;33.56;102430.22;5120769;27;20046;-31
2022/03/25 01:54:28;;;;;;;0.10;0.10;;;;;;;21.29;33.53;102434.94;5116895;27;20134;-31
2022/03/25 01:57:05;;;;;;;0.10;0.10;;;;;;;21.31;33.52;102429.13;5127806;27;20140;-35
2022/03/25 01:59:31;;;;;;;0.10;0.10;;;;;;;21.30;33.35;102431.06;5118366;27;20442;-32
2022/03/25 02:01:57;;;;;;;0.20;0.20;;;;;;;21.30;33.50;102442.16;5126335;27;20043;-35
2022/03/25 02:04:24;;;;;;;0.17;0.17;;;;;;;21.30;33.44;102433.00;5124291;27;20488;-31
2022/03/25 02:06:51;;;;;;;0.10;0.10;;;;;;;21.30;33.36;102433.84;5123540;27;20550;-31
2022/03/25 02:09:16;;;;;;;0.20;0.20;;;;;;;21.29;33.52;102431.34;5122744;27;20126;-33
2022/03/25 02:11:42;;;;;;;0.22;0.22;;;;;;;21.29;33.54;102434.94;5124946;27;20050;-32
2022/03/25 02:14:09;;;;;;;0.20;0.20;;;;;;;21.29;33.59;102437.72;5131199;27;20397;-31
2022/03/25 02:16:38;;;;;;;0.10;0.10;;;;;;;21.30;33.31;102436.59;5130379;27;20043;-31
2022/03/25 02:19:04;;;;;;;0.10;0.10;;;;;;;21.29;33.43;102434.94;5119805;27;20051;-33
2022/03/25 02:21:32;;;;;;;0.10;0.10;;;;;;;21.29;33.50;102434.09;5122997;27;20043;-31
2022/03/25 02:23:58;;;;;;;0.10;0.10;;;;;;;21.30;33.60;102444.09;5118810;27;20075;-32
2022/03/25 02:26:24;;;;;;;0.10;0.10;;;;;;;21.29;33.59;102439.66;5126917;27;20150;-32
2022/03/25 02:28:49;;;;;;;0.20;0.20;;;;;;;21.29;33.43;102443.25;5124959;27;20043;-32
2022/03/25 02:31:17;;;;;;;0.20;0.20;;;;;;;21.29;33.25;102439.66;5123794;27;20389;-30
2022/03/25 02:33:43;;;;;;;0.10;0.10;;;;;;;21.29;33.28;102442.41;5121402;27;20133;-32
2022/03/25 02:36:09;;;;;;;0.10;0.10;;;;;;;21.29;33.56;102443.25;5119856;27;20086;-32
2022/03/25 02:38:35;;;;;;;0.10;0.10;;;;;;;21.28;33.39;102438.78;5126790;27;20086;-33
2022/03/25 02:41:01;;;;;;;0.17;0.17;;;;;;;21.29;33.49;102437.72;5120694;27;20100;-33
2022/03/25 02:43:27;;;;;;;0.20;0.20;;;;;;;21.29;33.35;102440.47;5122129;27;20048;-31
2022/03/25 02:45:53;;;;;;;0.20;0.20;;;;;;;21.28;33.57;102444.31;5119322;27;21371;-31
2022/03/25 02:48:19;;;;;;;0.10;0.10;;;;;;;21.28;33.60;102444.31;5126195;27;20042;-31
2022/03/25 02:50:46;;;;;;;0.10;0.10;;;;;;;21.28;33.33;102438.78;5115660;27;20047;-32
2022/03/25 02:53:13;;;;;;;0.10;0.10;;;;;;;21.30;33.33;102438.53;5121723;27;20136;-32
2022/03/25 02:55:40;;;;;;;0.20;0.20;;;;;;;21.29;33.50;102436.88;5121658;27;20105;-33
2022/03/25 02:58:06;;;;;;;0.15;0.15;;;;;;;21.28;33.47;102438.78;5120222;27;20083;-30
2022/03/25 03:00:33;;;;;;;0.20;0.20;;;;;;;21.26;33.58;102443.75;5118827;27;20111;-30
2022/03/25 03:03:00;;;;;;;0.10;0.10;;;;;;;21.26;33.47;102441.00;5125113;27;20214;-32
2022/03/25 03:05:27;;;;;;;0.20;0.20;;;;;;;21.28;33.42;102443.50;5121726;27;20056;-31
2022/03/25 03:07:54;;;;;;;0.20;0.20;;;;;;;21.27;33.42;102436.28;5122705;27;20079;-31
2022/03/25 03:10:19;;;;;;;0.10;0.10;;;;;;;21.27;33.46;102444.59;5122943;27;20558;-33
2022/03/25 03:12:45;;;;;;;0.20;0.20;;;;;;;21.27;33.57;102444.59;5121703;27;20062;-32
2022/03/25 03:15:12;;;;;;;0.13;0.13;;;;;;;21.27;33.42;102450.97;5125585;27;20195;-32
2022/03/25 03:17:39;;;;;;;0.10;0.10;;;;;;;21.27;33.61;102450.13;5127424;27;20071;-32
2022/03/25 03:20:06;;;;;;;0.20;0.20;;;;;;;21.27;33.59;102453.75;5120658;27;20599;-31
2022/03/25 03:22:32;;;;;;;0.20;0.20;;;;;;;21.26;33.50;102449.31;5124563;27;20076;-32
2022/03/25 03:24:57;;;;;;;0.20;0.20;;;;;;;21.27;33.59;102453.75;5118953;27;20131;-32
2022/03/25 03:27:23;;;;;;;0.20;0.20;;;;;;;21.26;33.39;102454.84;5118274;27;21423;-32
2022/03/25 03:29:49;;;;;;;0.20;0.20;;;;;;;21.27;33.53;102458.44;5120616;27;20055;-31
2022/03/25 03:32:15;;;;;;;0.10;0.10;;;;;;;21.26;33.52;102457.63;5123372;27;20086;-34
2022/03/25 03:34:40;;;;;;;0.20;0.20;;;;;;;21.27;33.51;102461.22;5121697;27;20039;-33
2022/03/25 03:37:06;;;;;;;0.20;0.20;;;;;;;21.26;33.55;102460.38;5119390;27;20040;-31
2022/03/25 03:39:32;;;;;;;0.20;0.20;;;;;;;21.26;33.55;102451.25;5117763;27;20289;-31
2022/03/25 03:41:58;;;;;;;0.20;0.20;;;;;;;21.24;33.62;102457.06;5125289;27;20054;-32
2022/03/25 03:44:24;;;;;;;0.20;0.20;;;;;;;21.26;33.54;102452.06;5116772;27;20072;-30
2022/03/25 03:46:49;;;;;;;0.20;0.20;;;;;;;21.26;33.41;102457.63;5121198;27;20047;-32
2022/03/25 03:49:15;;;;;;;0.10;0.10;;;;;;;21.27;33.58;102456.50;5118537;27;20059;-32
2022/03/25 03:51:41;;;;;;;0.20;0.20;;;;;;;21.26;33.37;102460.38;5128658;27;20047;-31
2022/03/25 03:54:06;;;;;;;0.20;0.20;;;;;;;21.25;33.39;102466.19;5120065;27;20051;-31
2022/03/25 03:56:32;;;;;;;0.20;0.20;;;;;;;21.27;33.30;102462.06;5121718;27;20082;-34
2022/03/25 03:58:58;;;;;;;0.20;0.20;;;;;;;21.25;33.54;102458.72;5120574;27;20146;-31
2022/03/25 04:01:24;;;;;;;0.20;0.20;;;;;;;21.25;33.52;102452.34;5122116;27;20395;-34
2022/03/25 04:03:50;;;;;;;0.20;0.20;;;;;;;21.24;33.47;102462.59;5125138;27;20039;-31
2022/03/25 04:06:15;;;;;;;0.20;0.20;;;;;;;21.25;33.68;102455.94;5125245;27;20050;-31
2022/03/25 04:08:41;;;;;;;0.20;0.20;;;;;;;21.23;33.38;102457.28;5125192;27;20183;-33
2022/03/25 04:11:07;;;;;;;0.20;0.20;;;;;;;21.24;33.43;102457.06;5126718;27;20051;-31
2022/03/25 04:13:32;;;;;;;0.20;0.20;;;;;;;21.25;33.40;102455.13;5125900;27;20327;-32
2022/03/25 04:15:58;;;;;;;0.15;0.15;;;;;;;21.25;33.54;102455.13;5127085;27;20039;-32
2022/03/25 04:18:24;;;;;;;0.20;0.20;;;;;;;21.24;33.51;102465.38;5125293;27;20039;-31
2022/03/25 04:20:50;;;;;;;0.17;0.17;;;;;;;21.24;33.72;102453.41;5121070;27;20047;-32
2022/03/25 04:23:18;;;;;;;0.20;0.20;;;;;;;21.24;33.41;102458.97;5124495;27;20046;-31
2022/03/25 04:25:44;;;;;;;0.20;0.20;;;;;;;21.24;33.43;102464.50;5122777;27;20048;-31
2022/03/25 04:28:09;;;;;;;0.10;0.10;;;;;;;21.23;33.39;102466.44;5124689;27;20467;-32
2022/03/25 04:30:37;;;;;;;0.20;0.20;;;;;;;21.25;33.53;102466.19;5125163;27;20043;-32
2022/03/25 04:33:04;;;;;;;0.10;0.10;;;;;;;21.24;33.58;102464.50;5127841;27;20089;-31
2022/03/25 04:35:32;;;;;;;0.10;0.10;;;;;;;21.24;33.53;102467.28;5122816;27;20184;-30
2022/03/25 04:37:59;;;;;;;0.17;0.17;;;;;;;21.23;33.47;102460.88;5125411;27;20712;-31
2022/03/25 04:40:26;;;;;;;0.10;0.10;;;;;;;21.24;33.57;102470.03;5124529;27;20308;-31
2022/03/25 04:42:53;;;;;;;0.10;0.10;;;;;;;21.23;33.68;102465.59;5128171;27;21324;-31
2022/03/25 04:45:20;;;;;;;0.20;0.20;;;;;;;21.23;33.40;102460.88;5124362;27;20096;-32
2022/03/25 04:47:46;;;;;;;0.20;0.20;;;;;;;21.24;33.61;102465.38;5120945;27;20101;-31
2022/03/25 04:50:12;;;;;;;0.20;0.20;;;;;;;21.24;33.55;102461.72;5127808;27;20184;-32
2022/03/25 04:52:38;;;;;;;0.20;0.20;;;;;;;21.23;33.35;102463.66;5126745;27;20043;-32
2022/03/25 04:55:04;;;;;;;0.20;0.20;;;;;;;21.23;33.52;102466.44;5123996;27;20068;-32
2022/03/25 04:57:30;;;;;;;0.10;0.10;;;;;;;21.23;33.65;102462.84;5123564;27;20090;-31
2022/03/25 04:59:56;;;;;;;0.20;0.20;;;;;;;21.25;33.50;102466.19;5126552;27;20405;-33
2022/03/25 05:02:22;;;;;;;0.20;0.20;;;;;;;21.23;33.32;102462.84;5119579;27;20143;-30
2022/03/25 05:04:48;;;;;;;0.20;0.20;;;;;;;21.23;33.56;102471.16;5118648;27;20181;-31
2022/03/25 05:07:14;;;;;;;0.30;0.30;;;;;;;21.23;33.52;102465.59;5123584;27;20044;-32
2022/03/25 05:09:40;;;;;;;0.20;0.20;;;;;;;21.25;33.39;102468.97;5121436;27;20044;-32
2022/03/25 05:12:06;;;;;;;0.20;0.20;;;;;;;21.22;33.41;102466.69;5117653;27;20398;-31
2022/03/25 05:14:34;;;;;;;0.20;0.20;;;;;;;21.22;33.38;102467.53;5127595;27;20043;-31
2022/03/25 05:17:00;;;;;;;0.15;0.15;;;;;;;21.22;33.49;102469.47;5130014;27;20074;-31
2022/03/25 05:19:26;;;;;;;0.20;0.20;;;;;;;21.23;33.51;102477.53;5122836;27;20554;-31
2022/03/25 05:21:51;;;;;;;0.20;0.20;;;;;;;21.22;33.69;102478.63;5129387;27;20043;-30
2022/03/25 05:24:17;;;;;;;0.30;0.30;;;;;;;21.22;33.67;102477.78;5124198;27;20050;-31
2022/03/25 05:26:43;;;;;;;0.10;0.10;;;;;;;21.22;33.57;102475.00;5127874;27;20485;-35
2022/03/25 05:29:09;;;;;;;0.10;0.10;;;;;;;21.21;33.57;102476.94;5123739;27;20082;-31
2022/03/25 05:31:36;;;;;;;0.20;0.20;;;;;;;21.22;33.53;102475.84;5120902;27;20071;-31
2022/03/25 05:34:04;;;;;;;0.10;0.10;;;;;;;21.21;33.56;102476.94;5126931;27;20047;-31
2022/03/25 05:36:32;;;;;;;0.20;0.20;;;;;;;21.20;33.58;102479.97;5126973;27;20087;-32
2022/03/25 05:38:58;;;;;;;0.20;0.20;;;;;;;21.22;33.33;102486.09;5126614;27;20624;-32
2022/03/25 05:41:25;;;;;;;0.20;0.20;;;;;;;21.22;33.39;102486.94;5121537;27;20067;-31
2022/03/25 05:43:51;;;;;;;0.15;0.15;;;;;;;21.21;33.47;102493.56;5132231;27;20137;-31
2022/03/25 05:46:17;;;;;;;0.10;0.10;;;;;;;21.22;33.42;102498.00;5118485;27;20176;-32
2022/03/25 05:48:44;;;;;;;0.20;0.20;;;;;;;21.22;33.61;102494.41;5122811;27;20095;-30
2022/03/25 05:51:10;;;;;;;0.10;0.10;;;;;;;21.22;33.53;102497.19;5129314;27;20083;-30
2022/03/25 05:53:37;;;;;;;0.10;0.10;;;;;;;21.21;33.64;102501.88;5119936;27;20074;-32
2022/03/25 05:56:05;;;;;;;0.20;0.20;;;;;;;21.23;33.68;102494.16;5116536;27;20096;-31
2022/03/25 05:58:34;;;;;;;0.10;0.10;;;;;;;21.22;33.67;102502.72;5123800;27;20097;-31
2022/03/25 06:01:01;;;;;;;0.20;0.20;;;;;;;21.22;33.53;102503.56;5119094;27;20051;-30
2022/03/25 06:03:27;;;;;;;0.25;0.25;;;;;;;21.22;33.63;102508.25;5120061;27;20130;-30
2022/03/25 06:05:53;;;;;;;0.20;0.20;;;;;;;21.21;33.54;102503.81;5124231;27;20458;-32
2022/03/25 06:08:18;;;;;;;0.10;0.10;;;;;;;21.21;33.69;102506.59;5120293;27;20451;-31
2022/03/25 06:10:44;;;;;;;0.10;0.10;;;;;;;21.21;33.49;102509.38;5117579;27;20366;-31
2022/03/25 06:13:10;;;;;;;0.10;0.10;;;;;;;21.21;33.69;102509.38;5128400;27;20047;-31
2022/03/25 06:15:35;;;;;;;0.10;0.10;;;;;;;21.20;33.53;102504.91;5120164;27;20501;-31
2022/03/25 06:18:01;;;;;;;0.20;0.20;;;;;;;21.21;33.47;102510.19;5125129;27;20084;-32
2022/03/25 06:20:29;;;;;;;0.10;0.10;;;;;;;21.19;33.76;102506.84;5116470;27;20040;-30
2022/03/25 06:22:55;;;;;;;0.20;0.20;;;;;;;21.20;33.62;102511.31;5119479;27;20051;-31
2022/03/25 06:25:20;;;;;;;0.20;0.20;;;;;;;21.20;33.75;102513.22;5125048;27;20079;-33
2022/03/25 06:27:51;;;;;;;0.10;0.10;;;;;;;21.21;33.57;102514.91;5122606;27;20506;-32
2022/03/25 06:30:18;;;;;;;0.10;0.10;;;;;;;21.21;33.70;102515.75;5117589;27;20112;-30
2022/03/25 06:32:43;;;;;;;0.10;0.10;;;;;;;21.19;33.74;102517.91;5122092;27;20077;-31
2022/03/25 06:35:09;;;;;;;0.10;0.10;;;;;;;20.89;30.37;102525.78;5116085;27;20035;-32
2022/03/25 06:37:36;;;;;;;0.10;0.10;;;;;;;21.05;32.61;102517.44;5116360;27;20097;-34
2022/03/25 06:40:05;;;;;;;0.10;0.10;;;;;;;21.16;33.00;102520.38;5131587;27;20462;-31
2022/03/25 06:42:31;;;;;;;0.20;0.20;;;;;;;21.17;33.01;102519.28;5128974;27;20079;-31
2022/03/25 06:45:03;;;;;;;0.20;0.20;;;;;;;21.18;32.86;102521.78;5120625;27;20130;-30
2022/03/25 06:47:29;;;;;;;0.20;0.20;;;;;;;21.19;33.08;102529.00;5121617;27;20078;-31
2022/03/25 06:49:55;;;;;;;0.20;0.20;;;;;;;21.21;33.16;102526.81;5118899;27;20105;-32
2022/03/25 06:52:21;;;;;;;0.10;0.10;;;;;;;21.21;32.93;102524.06;5120526;27;20043;-31
2022/03/25 06:54:47;;;;;;;0.30;0.30;;;;;;;21.23;33.05;102530.16;5117649;27;20044;-33
2022/03/25 06:57:13;;;;;;;0.20;0.20;;;;;;;21.17;32.16;102522.88;5117832;27;20173;-32
2022/03/25 06:59:41;;;;;;;0.20;0.20;;;;;;;21.15;32.48;102527.84;5111230;27;20042;-33
2022/03/25 07:02:09;;;;;;;0.20;0.20;;;;;;;21.25;32.59;102529.94;5108364;27;20040;-30
2022/03/25 07:04:36;;;;;;;;;;;;;;;21.27;32.81;102533.25;5115813;27;20067;-34
2022/03/25 07:07:03;;;;;;;0.20;0.20;;;;;;;21.27;32.93;102536.88;5113349;27;19923;-32
2022/03/25 07:09:29;;;;;;;0.10;0.10;;;;;;;21.29;32.86;102531.09;5109731;27;20563;-30
2022/03/25 07:11:56;;;;;;;0.20;0.20;;;;;;;21.30;32.84;102539.13;5118508;27;20067;-30
2022/03/25 07:14:21;;;;;;;0.17;0.17;;;;;;;21.33;32.90;102539.72;5117126;27;20066;-32
2022/03/25 07:16:47;;;;;;;0.32;0.32;;;;;;;21.32;32.73;102533.34;5116420;27;20046;-31
2022/03/25 07:19:13;;;;;;;0.10;0.10;;;;;;;21.34;32.91;102538.66;5115078;27;20108;-30
2022/03/25 07:21:38;;;;;;;0.20;0.20;;;;;;;21.34;32.76;102533.97;5111953;27;20051;-31
2022/03/25 07:24:05;;;;;;;0.10;0.10;;;;;;;21.35;32.89;102543.09;5111145;27;20055;-31
2022/03/25 07:26:31;;;;;;;0.20;0.20;;;;;;;21.36;33.01;102545.59;5118512;27;20071;-30
2022/03/25 07:28:56;;;;;;;0.10;0.10;;;;;;;21.37;32.80;102549.22;5118083;27;20070;-30
2022/03/25 07:31:22;;;;;;;0.10;0.10;;;;;;;21.38;32.74;102545.38;5118401;27;20070;-32
2022/03/25 07:33:48;;;;;;;0.10;0.10;;;;;;;21.39;32.80;102547.88;5119033;27;20047;-31
2022/03/25 07:36:14;;;;;;;0.20;0.20;;;;;;;21.40;32.69;102552.31;5117547;27;20058;-32
2022/03/25 07:38:40;;;;;;;0.20;0.20;;;;;;;21.40;32.99;102546.78;5115923;27;20047;-30
2022/03/25 07:41:05;;;;;;;0.20;0.20;;;;;;;21.41;32.77;102547.59;5113141;27;20054;-30
2022/03/25 07:43:31;;;;;;;0.20;0.20;;;;;;;21.41;32.74;102548.44;5122655;27;20043;-30
2022/03/25 07:45:57;;;;;;;0.20;0.20;;;;;;;21.42;32.60;102554.84;5116632;27;20043;-31
2022/03/25 07:48:23;;;;;;;0.20;0.20;;;;;;;21.44;32.70;102558.19;5111748;27;20047;-32
2022/03/25 07:50:48;;;;;;;0.20;0.20;;;;;;;21.44;32.52;102560.97;5110564;27;20046;-32
2022/03/25 07:53:14;;;;;;;0.20;0.20;;;;;;;21.45;32.59;102559.84;5113330;27;20066;-32
2022/03/25 07:55:42;;;;;;;0.17;0.17;;;;;;;21.46;32.56;102562.41;5109965;27;20116;-31
2022/03/25 07:58:07;;;;;;;0.10;0.10;;;;;;;21.46;32.38;102569.84;5110675;27;20146;-31
2022/03/25 08:00:38;;;;;;;0.20;0.20;;;;;;;21.47;32.76;102566.84;5109177;27;20092;-31
2022/03/25 08:03:03;;;;;;;0.10;0.10;;;;;;;21.48;32.51;102567.66;5116139;27;20515;-31
2022/03/25 08:05:30;;;;;;;0.10;0.10;;;;;;;21.49;32.45;102578.50;5112300;27;20047;-31
2022/03/25 08:07:56;;;;;;;0.20;0.20;;;;;;;21.49;32.63;102572.13;5105720;27;20066;-31
2022/03/25 08:10:28;;;;;;;0.20;0.20;;;;;;;21.48;32.67;102574.03;5107601;27;20116;-31
2022/03/25 08:12:56;;;;;;;0.20;0.20;;;;;;;21.48;32.67;102585.13;5104844;27;20066;-31
2022/03/25 08:15:23;;;;;;;0.20;0.20;;;;;;;21.49;32.54;102580.44;5098332;27;20531;-30
2022/03/25 08:17:52;;;;;;;0.10;0.10;;;;;;;21.47;32.61;102586.25;5109332;27;20273;-32
2022/03/25 08:20:19;;;;;;;0.20;0.20;;;;;;;21.48;32.67;102584.31;5101970;27;20178;-31
2022/03/25 08:22:45;;;;;;;0.20;0.20;;;;;;;21.48;32.76;102587.06;5111406;27;20074;-31
2022/03/25 08:28:00;;;;;;;0.20;0.20;;;;;;;21.48;32.62;102587.06;5104384;27;20234;-31
2022/03/25 08:30:28;;;;;;;0.20;0.20;;;;;;;21.48;32.77;102589.84;5104226;27;20137;-32
2022/03/25 08:32:53;;;;;;;0.10;0.10;;;;;;;21.47;32.72;102586.25;5110179;27;20078;-30
2022/03/25 08:35:19;;;;;;;0.10;0.10;;;;;;;21.48;32.66;102589.84;5112271;27;20410;-30
2022/03/25 08:37:45;;;;;;;0.20;0.20;;;;;;;21.48;32.69;102592.63;5103083;27;20084;-30
2022/03/25 08:40:11;;;;;;;0.20;0.20;;;;;;;21.47;32.92;102591.78;5103936;27;20054;-31
2022/03/25 08:42:37;;;;;;;0.10;0.10;;;;;;;21.46;32.86;102601.19;5116194;27;20466;-31
2022/03/25 08:45:04;;;;;;;0.10;0.10;;;;;;;21.46;32.77;102595.66;5114734;27;20069;-31
2022/03/25 08:47:29;;;;;;;0.10;0.10;;;;;;;21.46;32.90;102601.19;5115355;27;20477;-32
2022/03/25 08:49:55;;;;;;;0.20;0.20;;;;;;;21.46;32.86;102598.44;5121448;27;20295;-33
2022/03/25 08:52:21;;;;;;;0.10;0.10;;;;;;;21.46;32.79;102597.56;5118149;27;20053;-31
2022/03/25 08:54:47;;;;;;;0.20;0.20;;;;;;;21.47;32.84;102599.25;5117242;27;20047;-32
2022/03/25 08:57:13;;;;;;;0.20;0.20;;;;;;;21.47;32.91;102610.34;5114870;27;20066;-30
2022/03/25 08:59:39;;;;;;;0.20;0.20;;;;;;;21.46;33.04;102603.97;5108977;27;20077;-31
2022/03/25 09:02:04;;;;;;;0.10;0.10;;;;;;;21.46;32.99;102608.66;5108242;27;20036;-31
2022/03/25 09:04:31;;;;;;;0.20;0.20;;;;;;;21.45;33.00;102599.50;5110436;27;20146;-30
2022/03/25 09:06:57;;;;;;;0.20;0.20;;;;;;;21.46;32.70;102611.41;5112237;27;20210;-30
2022/03/25 09:09:23;;;;;;;0.13;0.13;;;;;;;21.45;32.71;102607.81;5111022;27;20082;-31
2022/03/25 09:11:49;;;;;;;0.20;0.20;;;;;;;21.45;32.72;102607.81;5116960;27;20051;-32
2022/03/25 09:14:15;;;;;;;0.20;0.20;;;;;;;21.45;33.02;102609.75;5118031;27;20062;-32
2022/03/25 09:16:41;;;;;;;0.20;0.20;;;;;;;21.45;32.80;102604.22;5111202;27;20040;-33
2022/03/25 09:19:06;;;;;;;0.20;0.20;;;;;;;21.44;32.80;102613.63;5089593;27;20054;-31
2022/03/25 09:21:32;;;;;;;0.10;0.10;;;;;;;21.43;32.98;102601.69;5114656;27;20074;-32
2022/03/25 09:23:58;;;;;;;0.20;0.20;;;;;;;21.44;32.92;102608.91;5111899;27;20343;-31
2022/03/25 09:26:25;;;;;;;0.20;0.20;;;;;;;21.43;33.20;102601.69;5114646;27;20038;-31
2022/03/25 09:28:51;;;;;;;0.20;0.20;;;;;;;21.45;32.80;102615.28;5117688;27;20499;-32
2022/03/25 09:31:16;;;;;;;0.20;0.20;;;;;;;21.45;32.80;102605.03;5108156;27;20160;-30
2022/03/25 09:36:48;;;;;;;0.20;0.20;;;;;;;21.42;33.00;102602.81;5115854;27;20071;-35
2022/03/25 09:39:13;;;;;;;0.20;0.20;;;;;;;21.44;32.79;102613.63;5106228;27;20054;-32
2022/03/25 09:41:39;;;;;;;0.15;0.15;;;;;;;21.43;33.09;102615.56;5112457;27;20059;-31
2022/03/25 09:44:05;;;;;;;0.20;0.20;;;;;;;21.42;32.78;102608.34;5106016;27;20482;-33
2022/03/25 09:46:31;;;;;;;0.20;0.20;;;;;;;21.43;32.94;102606.41;5108301;27;20234;-33
2022/03/25 09:48:56;;;;;;;0.13;0.13;;;;;;;21.42;32.78;102605.56;5109205;27;20075;-31
2022/03/25 09:51:27;;;;;;;0.20;0.20;;;;;;;21.25;32.77;102605.56;5109842;27;20158;-33
2022/03/25 09:53:53;;;;;;;0.10;0.10;;;;;;;21.34;32.85;102606.00;5114631;27;20177;-35
2022/03/25 09:56:18;;;;;;;0.13;0.13;;;;;;;21.40;32.94;102609.69;5106807;27;20328;-31
2022/03/25 09:58:44;;;;;;;0.10;0.10;;;;;;;21.41;32.88;102603.03;5116633;27;20043;-32
2022/03/25 10:01:10;;;;;;;0.10;0.10;;;;;;;21.42;32.80;102608.34;5112403;27;20451;-31
2022/03/25 10:03:36;;;;;;;0.10;0.10;;;;;;;21.45;32.84;102606.97;5117725;27;20457;-31
2022/03/25 10:06:09;;;;;;;0.10;0.10;;;;;;;21.44;32.95;102595.06;5113501;27;20130;-30
2022/03/25 10:08:42;;;;;;;;;;;;;;;21.45;32.86;102605.03;5114189;27;20384;-31
2022/03/25 10:11:30;;;;;;;0.10;0.10;;;;;;;21.43;31.88;102603.63;5109977;27;19958;-47
2022/03/25 10:14:18;;;;;;;0.22;0.22;;;;;;;21.30;31.86;102600.09;5123876;27;20402;-39
2022/03/25 10:16:46;;;;;;;0.60;0.35;;;;;;;21.26;31.97;102598.09;5119268;27;20046;-31
2022/03/25 10:19:16;;;;;;;0.20;0.20;;;;;;;21.41;32.31;102594.72;5117221;27;20035;-33
2022/03/25 10:21:52;;;;;;;0.20;0.20;;;;;;;21.32;32.02;102597.09;5113505;27;20089;-30
2022/03/25 10:24:35;;;;;;;0.20;0.20;;;;;;;21.45;31.82;102595.88;5116793;27;20066;-31
2022/03/25 10:27:12;;;;;;;0.20;0.20;;;;;;;21.53;31.99;102590.75;5109468;27;20079;-30
2022/03/25 10:29:38;;;;;;;0.10;0.10;;;;;;;21.57;32.01;102593.00;5113435;27;20192;-31
2022/03/25 10:32:09;;;;;;;0.10;0.10;;;;;;;21.59;32.13;102586.13;5117060;27;20159;-31
2022/03/25 10:34:37;;;;;;;0.20;0.20;;;;;;;21.60;32.04;102596.13;5112048;27;20392;-32
2022/03/25 10:37:05;;;;;;;0.20;0.20;;;;;;;21.45;31.88;102595.88;5110313;27;20074;-32
2022/03/25 10:39:32;;;;;;;0.20;0.20;;;;;;;21.35;31.78;102601.31;5111174;27;20482;-37
2022/03/25 10:42:00;;;;;;;0.20;0.20;;;;;;;21.51;31.74;102595.72;5107455;27;20081;-32
2022/03/25 10:44:41;;;;;;;0.10;0.10;;;;;;;21.62;31.67;102604.16;5111745;27;20073;-34
2022/03/25 10:47:24;;;;;;;0.10;0.10;;;;;;;21.67;31.86;102591.19;5110793;27;20192;-35
2022/03/25 10:49:51;;;;;;;0.10;0.10;;;;;;;21.70;32.04;102585.13;5110192;27;20394;-33
2022/03/25 10:52:30;;;;;;;0.20;0.20;;;;;;;21.72;31.96;102588.50;5113431;27;20695;-35
2022/03/25 10:55:20;;;;;;;0.10;0.10;;;;;;;21.74;31.89;102589.06;5111623;27;20043;-36
2022/03/25 10:57:54;;;;;;;0.52;0.30;;;;;;;21.75;32.07;102589.91;5111661;27;21383;-34
2022/03/25 11:00:21;;;;;;;0.15;0.15;;;;;;;21.77;32.05;102593.28;5109914;27;20466;-36
2022/03/25 11:02:47;;;;;;;0.20;0.20;;;;;;;21.79;31.90;102588.31;5112801;27;20494;-35
2022/03/25 11:05:14;;;;;;;0.20;0.20;;;;;;;21.43;29.46;102590.63;5116535;27;20057;-33
2022/03/25 11:07:42;;;;;;;0.20;0.20;;;;;;;21.63;30.02;102591.97;5097175;27;20079;-40
2022/03/25 11:10:09;;;;;;;0.10;0.10;;;;;;;21.61;30.07;102592.25;5112207;27;20502;-33
2022/03/25 11:12:37;;;;;;;0.20;0.20;;;;;;;21.74;30.53;102585.47;5117628;27;20062;-32
2022/03/25 11:15:04;;;;;;;0.20;0.20;;;;;;;21.79;30.92;102579.97;5115211;27;20071;-36
2022/03/25 11:17:33;;;;;;;0.20;0.20;;;;;;;21.81;30.88;102577.81;5115533;27;20081;-34
2022/03/25 11:20:00;;;;;;;0.20;0.20;;;;;;;21.83;30.85;102583.91;5111972;27;20122;-33
2022/03/25 11:22:26;;;;;;;0.20;0.20;;;;;;;21.86;31.05;102577.84;5114353;27;20113;-34
2022/03/25 11:24:55;;;;;;;0.20;0.20;;;;;;;21.87;30.96;102582.31;5114345;27;20283;-34
2022/03/25 11:27:28;;;;;;;0.20;0.20;;;;;;;21.89;31.13;102582.03;5116131;27;20047;-35
2022/03/25 11:29:56;;;;;;;0.20;0.20;;;;;;;21.90;31.03;102583.72;5112056;27;20123;-40
2022/03/25 11:32:21;;;;;;;0.10;0.10;;;;;;;21.91;31.20;102574.31;5113034;27;20087;-37